createdAt,value
2019-05-30T00:03:11.190Z,100487.48
2019-05-30T00:08:16.232Z,100488.86
2019-05-30T00:13:21.070Z,100484.47
2019-05-30T00:18:25.855Z,100492.70
2019-05-30T00:23:30.570Z,100483.66
2019-05-30T00:28:35.315Z,100486.42
2019-05-30T00:33:39.970Z,100487.52
2019-05-30T00:38:44.629Z,100495.79
2019-05-30T00:43:49.365Z,100483.02
2019-05-30T00:48:56.272Z,100478.89
2019-05-30T00:54:01.131Z,100472.28
2019-05-30T00:59:06.953Z,100481.64
2019-05-30T01:04:11.830Z,100484.47
2019-05-30T01:09:16.420Z,100487.23
2019-05-30T01:14:21.142Z,100491.68
2019-05-30T01:19:25.875Z,100493.34
2019-05-30T01:24:30.768Z,100485.08
2019-05-30T01:29:35.480Z,100483.48
2019-05-30T01:34:40.107Z,100484.30
2019-05-30T01:39:44.833Z,100485.13
2019-05-30T01:44:49.557Z,100490.09
2019-05-30T01:49:54.262Z,100487.02
2019-05-30T01:54:58.935Z,100486.53
2019-05-30T02:00:10.851Z,100486.81
2019-05-30T02:05:10.630Z,100486.81
2019-05-30T02:10:16.026Z,100486.27
2019-05-30T02:15:20.840Z,100483.23
2019-05-30T02:20:25.556Z,100485.70
2019-05-30T02:25:30.745Z,100499.75
2019-05-30T02:30:35.690Z,100498.67
2019-05-30T02:35:40.437Z,100497.01
2019-05-30T02:40:45.052Z,100503.64
2019-05-30T02:45:49.720Z,100508.05
2019-05-30T02:50:54.480Z,100505.30
2019-05-30T02:55:59.357Z,100506.17
2019-05-30T03:01:06.343Z,100507.57
2019-05-30T03:06:13.534Z,100514.73
2019-05-30T03:11:17.091Z,100521.08
2019-05-30T03:16:21.812Z,100509.51
2019-05-30T03:21:26.837Z,100515.01
2019-05-30T03:26:31.456Z,100504.24
2019-05-30T03:31:37.123Z,100515.53
2019-05-30T03:36:42.006Z,100508.67
2019-05-30T03:41:46.932Z,100506.73
2019-05-30T03:46:54.515Z,100499.59
2019-05-30T03:52:01.723Z,100493.24
2019-05-30T03:57:14.005Z,100488.04
2019-05-30T04:02:26.228Z,100502.34
2019-05-30T04:07:31.815Z,100494.32
2019-05-30T04:12:54.419Z,100494.87
2019-05-30T04:17:59.086Z,100498.17
2019-05-30T04:23:03.854Z,100499.26
2019-05-30T04:28:09.745Z,100501.77
2019-05-30T04:33:25.799Z,100501.50
2019-05-30T04:38:21.038Z,100509.48
2019-05-30T04:43:25.717Z,100513.09
2019-05-30T04:48:30.555Z,100494.64
2019-05-30T04:53:36.140Z,100503.21
2019-05-30T04:58:42.604Z,100506.23
2019-05-30T05:03:47.290Z,100504.00
2019-05-30T05:08:51.985Z,100523.02
2019-05-30T05:13:56.655Z,100511.41
2019-05-30T05:19:01.291Z,100512.26
2019-05-30T05:24:06.014Z,100515.78
2019-05-30T05:29:10.642Z,100532.84
2019-05-30T05:34:16.565Z,100528.72
2019-05-30T05:39:22.227Z,100535.56
2019-05-30T05:44:27.246Z,100533.34
2019-05-30T05:49:31.950Z,100546.33
2019-05-30T05:54:36.599Z,100556.76
2019-05-30T05:59:41.286Z,100568.27
2019-05-30T06:04:46.007Z,100582.87
2019-05-30T06:09:50.645Z,100584.17
2019-05-30T06:14:55.271Z,100588.91
2019-05-30T06:20:00.175Z,100598.28
2019-05-30T06:25:05.557Z,100604.89
2019-05-30T06:30:10.556Z,100614.03
2019-05-30T06:35:15.625Z,100618.38
2019-05-30T06:40:21.399Z,100625.80
2019-05-30T06:45:26.844Z,100626.05
2019-05-30T06:50:31.626Z,100626.34
2019-05-30T06:55:36.667Z,100634.50
2019-05-30T07:00:41.411Z,100650.23
2019-05-30T07:05:46.895Z,100652.09
2019-05-30T07:10:51.949Z,100661.11
2019-05-30T07:15:57.235Z,100667.14
2019-05-30T07:21:02.179Z,100666.60
2019-05-30T07:26:07.118Z,100668.12
2019-05-30T07:31:12.203Z,100666.30
2019-05-30T07:36:16.856Z,100667.69
2019-05-30T07:41:21.570Z,100678.50
2019-05-30T07:46:26.761Z,100670.28
2019-05-30T07:51:32.632Z,100669.97
2019-05-30T07:56:38.649Z,100675.69
2019-05-30T08:01:43.336Z,100687.05
2019-05-30T08:06:48.126Z,100684.87
2019-05-30T08:11:53.035Z,100699.47
2019-05-30T08:16:57.818Z,100690.77
2019-05-30T08:22:02.932Z,100696.16
2019-05-30T08:27:07.723Z,100695.47
2019-05-30T08:32:12.471Z,100688.70
2019-05-30T08:37:17.231Z,100698.00
2019-05-30T08:42:21.973Z,100694.22
2019-05-30T08:47:26.823Z,100697.78
2019-05-30T08:52:32.378Z,100700.23
2019-05-30T08:57:38.761Z,100701.16
2019-05-30T09:02:43.572Z,100707.33
2019-05-30T09:07:48.831Z,100707.21
2019-05-30T09:12:54.270Z,100703.05
2019-05-30T09:17:59.357Z,100699.87
2019-05-30T09:23:04.212Z,100705.32
2019-05-30T09:28:08.951Z,100713.81
2019-05-30T09:33:13.848Z,100704.95
2019-05-30T09:38:18.812Z,100712.00
2019-05-30T09:43:23.502Z,100709.98
2019-05-30T09:48:28.351Z,100719.74
2019-05-30T09:53:33.942Z,100716.62
2019-05-30T09:58:39.681Z,100718.11
2019-05-30T10:03:45.185Z,100717.18
2019-05-30T10:08:52.999Z,100722.39
2019-05-30T10:13:57.994Z,100735.64
2019-05-30T10:19:02.792Z,100743.81
2019-05-30T10:24:07.604Z,100734.14
2019-05-30T10:29:12.502Z,100752.30
2019-05-30T10:34:17.850Z,100748.87
2019-05-30T10:39:23.091Z,100751.77
2019-05-30T10:44:27.969Z,100748.67
2019-05-30T10:49:34.956Z,100757.66
2019-05-30T10:54:39.773Z,100748.45
2019-05-30T10:59:45.964Z,100760.13
2019-05-30T11:04:51.410Z,100761.15
2019-05-30T11:10:03.091Z,100761.15
2019-05-30T11:15:08.619Z,100772.84
2019-05-30T11:20:13.553Z,100770.30
2019-05-30T11:25:18.425Z,100779.98
2019-05-30T11:30:23.568Z,100774.31
2019-05-30T11:35:28.584Z,100775.14
2019-05-30T11:40:33.651Z,100778.54
2019-05-30T11:45:38.730Z,100801.40
2019-05-30T11:50:43.827Z,100790.09
2019-05-30T11:55:50.121Z,100784.05
2019-05-30T12:00:56.361Z,100787.26
2019-05-30T12:06:01.274Z,100793.72
2019-05-30T12:11:06.029Z,100805.88
2019-05-30T12:16:10.974Z,100790.91
2019-05-30T12:21:16.291Z,100793.94
2019-05-30T12:26:20.934Z,100811.82
2019-05-30T12:31:25.799Z,100809.12
2019-05-30T12:36:30.630Z,100804.00
2019-05-30T12:41:35.623Z,100810.94
2019-05-30T12:46:40.590Z,100816.23
2019-05-30T12:51:45.378Z,100808.78
2019-05-30T12:56:50.117Z,100813.83
2019-05-30T13:01:56.793Z,100808.53
2019-05-30T13:07:01.786Z,100811.62
2019-05-30T13:12:07.040Z,100813.95
2019-05-30T13:17:11.799Z,100814.70
2019-05-30T13:22:17.128Z,100823.85
2019-05-30T13:27:22.143Z,100810.10
2019-05-30T13:32:26.833Z,100824.36
2019-05-30T13:37:31.490Z,100824.36
2019-05-30T13:42:36.488Z,100822.72
2019-05-30T13:47:41.399Z,100818.38
2019-05-30T13:52:46.147Z,100824.05
2019-05-30T13:57:51.010Z,100813.11
2019-05-30T14:02:56.745Z,100811.92
2019-05-30T14:08:02.679Z,100822.77
2019-05-30T14:13:08.909Z,100820.42
2019-05-30T14:18:13.824Z,100815.55
2019-05-30T14:23:19.355Z,100827.27
2019-05-30T14:28:24.589Z,100821.55
2019-05-30T14:33:29.285Z,100822.77
2019-05-30T14:38:33.965Z,100825.59
2019-05-30T14:43:38.797Z,100822.99
2019-05-30T14:48:43.543Z,100823.52
2019-05-30T14:53:48.532Z,100824.94
2019-05-30T14:58:53.400Z,100820.63
2019-05-30T15:03:59.101Z,100816.74
2019-05-30T15:09:16.317Z,100818.28
2019-05-30T15:14:10.858Z,100815.73
2019-05-30T15:19:16.514Z,100822.56
2019-05-30T15:24:21.346Z,100822.73
2019-05-30T15:29:26.096Z,100827.81
2019-05-30T15:34:30.716Z,100826.93
2019-05-30T15:39:35.405Z,100824.04
2019-05-30T15:44:40.293Z,100820.67
2019-05-30T15:49:46.065Z,100827.22
2019-05-30T15:54:51.099Z,100819.19
2019-05-30T15:59:55.791Z,100819.50
2019-05-30T16:05:00.673Z,100821.97
2019-05-30T16:10:06.046Z,100825.09
2019-05-30T16:15:11.781Z,100825.18
2019-05-30T16:20:17.891Z,100815.70
2019-05-30T16:25:23.108Z,100815.70
2019-05-30T16:30:27.790Z,100820.29
2019-05-30T16:35:32.865Z,100823.73
2019-05-30T16:40:37.601Z,100822.98
2019-05-30T16:45:42.361Z,100818.19
2019-05-30T16:50:47.132Z,100825.59
2019-05-30T16:55:51.845Z,100818.73
2019-05-30T17:00:56.510Z,100822.39
2019-05-30T17:06:01.243Z,100826.49
2019-05-30T17:11:06.109Z,100822.63
2019-05-30T17:16:10.921Z,100818.08
2019-05-30T17:21:16.455Z,100830.27
2019-05-30T17:26:21.320Z,100825.69
2019-05-30T17:31:26.223Z,100822.95
2019-05-30T17:36:31.076Z,100812.12
2019-05-30T17:41:35.845Z,100817.09
2019-05-30T17:46:40.485Z,100820.55
2019-05-30T17:51:45.506Z,100820.96
2019-05-30T17:56:50.378Z,100816.19
2019-05-30T18:01:55.165Z,100808.84
2019-05-30T18:06:59.985Z,100805.29
2019-05-30T18:12:04.584Z,100813.58
2019-05-30T18:17:09.529Z,100810.33
2019-05-30T18:22:14.585Z,100818.97
2019-05-30T18:27:19.389Z,100817.91
2019-05-30T18:32:24.264Z,100807.72
2019-05-30T18:37:29.007Z,100811.31
2019-05-30T18:42:33.809Z,100817.67
2019-05-30T18:47:38.558Z,100811.86
2019-05-30T19:03:48.970Z,100814.10
2019-05-30T19:08:53.876Z,100820.17
2019-05-30T19:13:59.381Z,100818.79
2019-05-30T19:19:04.394Z,100823.48
2019-05-30T19:24:09.407Z,100820.98
2019-05-30T19:29:14.621Z,100817.67
2019-05-30T19:34:19.981Z,100824.86
2019-05-30T19:39:24.844Z,100822.70
2019-05-30T19:44:29.974Z,100821.88
2019-05-30T19:49:34.806Z,100824.95
2019-05-30T19:54:39.680Z,100817.23
2019-05-30T19:59:44.622Z,100809.52
2019-05-30T20:04:49.536Z,100816.42
2019-05-30T20:10:01.360Z,100818.34
2019-05-30T20:15:01.321Z,100821.40
2019-05-30T20:20:07.460Z,100821.11
2019-05-30T20:25:12.833Z,100820.02
2019-05-30T20:30:18.390Z,100834.92
2019-05-30T20:35:23.133Z,100834.92
2019-05-30T20:40:27.940Z,100834.09
2019-05-30T20:45:32.837Z,100838.52
2019-05-30T20:50:37.663Z,100841.81
2019-05-30T20:55:42.582Z,100849.84
2019-05-30T21:00:47.460Z,100848.45
2019-05-30T21:05:52.386Z,100855.10
2019-05-30T21:10:58.978Z,100854.27
2019-05-30T21:16:04.733Z,100857.02
2019-05-30T21:21:09.620Z,100860.90
2019-05-30T21:26:14.252Z,100857.87
2019-05-30T21:31:19.050Z,100865.33
2019-05-30T21:36:26.623Z,100860.09
2019-05-30T21:41:30.346Z,100859.27
2019-05-30T21:46:35.360Z,100857.05
2019-05-30T21:51:41.251Z,100863.38
2019-05-30T21:56:46.171Z,100852.62
2019-05-30T22:01:56.903Z,100854.58
2019-05-30T22:06:57.420Z,100858.44
2019-05-30T22:12:02.238Z,100866.44
2019-05-30T22:17:07.241Z,100867.83
2019-05-30T22:22:11.940Z,100865.33
2019-05-30T22:27:16.890Z,100866.70
2019-05-30T22:32:21.743Z,100873.34
2019-05-30T22:37:26.421Z,100870.59
2019-05-30T22:42:31.220Z,100875.55
2019-05-30T22:47:36.300Z,100874.45
2019-05-30T22:52:41.059Z,100879.15
2019-05-30T22:57:46.399Z,100881.62
2019-05-30T23:02:51.931Z,100877.50
2019-05-30T23:07:56.809Z,100882.18
2019-05-30T23:13:01.690Z,100871.98
2019-05-30T23:18:06.547Z,100870.33
2019-05-30T23:23:11.429Z,100871.98
2019-05-30T23:28:16.086Z,100874.45
2019-05-30T23:33:20.800Z,100871.70
2019-05-30T23:38:25.461Z,100859.55
2019-05-30T23:43:30.153Z,100863.44
2019-05-30T23:48:35.013Z,100864.81
2019-05-30T23:53:39.769Z,100868.12
2019-05-30T23:58:44.506Z,100860.37
